Time;durP1;ratioP1;P1;durP2;ratioP2;P2;SDS_P1;SDS_P2;PMS_P1;PMS_P2;Temp;Humidity;BMP_temperature;BMP_pressure;BME280_temperature;BME280_humidity;BME280_pressure;Samples;Min_cycle;Max_cycle;Signal;HPM_P1;HPM_P2
2021/04/09 00:00:43;;;;;;;4.20;1.48;;;18.90;31.80;;;;;;5076019;28;20618;-64
2021/04/09 00:03:09;;;;;;;2.85;1.23;;;18.90;31.80;;;;;;5076217;28;20111;-65
2021/04/09 00:05:35;;;;;;;4.68;1.45;;;18.90;31.80;;;;;;5075749;28;20495;-66
2021/04/09 00:08:01;;;;;;;3.83;1.50;;;18.90;31.80;;;;;;5075704;28;20029;-66
2021/04/09 00:10:29;;;;;;;4.45;1.60;;;18.90;31.80;;;;;;5076173;28;20125;-65
2021/04/09 00:12:56;;;;;;;4.35;1.48;;;18.90;31.80;;;;;;5075541;28;20442;-66
2021/04/09 00:15:22;;;;;;;3.35;1.52;;;18.90;31.80;;;;;;5075541;28;20012;-65
2021/04/09 00:17:47;;;;;;;4.63;1.48;;;18.90;31.80;;;;;;5076028;28;20025;-65
2021/04/09 00:20:18;;;;;;;3.40;1.45;;;18.90;31.80;;;;;;5075936;28;20350;-65
2021/04/09 00:22:44;;;;;;;4.95;1.60;;;18.90;31.80;;;;;;5075674;28;20025;-65
2021/04/09 00:25:11;;;;;;;5.60;1.77;;;18.90;31.80;;;;;;5075957;28;20048;-66
2021/04/09 00:27:36;;;;;;;4.22;1.65;;;18.90;31.70;;;;;;5075857;28;20103;-64
2021/04/09 00:30:04;;;;;;;3.85;1.65;;;18.80;31.70;;;;;;5076269;28;20071;-66
2021/04/09 00:32:30;;;;;;;4.93;2.00;;;18.90;31.80;;;;;;5075885;28;20040;-66
2021/04/09 00:34:55;;;;;;;3.58;1.50;;;18.90;31.80;;;;;;5075695;28;20100;-65
2021/04/09 00:37:21;;;;;;;4.45;1.75;;;18.80;31.70;;;;;;5075762;28;20048;-65
2021/04/09 00:39:47;;;;;;;4.78;1.83;;;18.90;31.80;;;;;;5075677;28;20044;-65
2021/04/09 00:42:17;;;;;;;3.50;1.48;;;18.90;31.70;;;;;;5075872;28;20028;-65
2021/04/09 00:44:43;;;;;;;4.93;2.25;;;18.80;31.70;;;;;;5075672;28;20467;-65
2021/04/09 00:47:09;;;;;;;4.13;1.77;;;18.80;31.70;;;;;;5074099;28;20464;-66
2021/04/09 00:49:34;;;;;;;6.68;2.05;;;18.80;31.70;;;;;;5075643;28;20020;-66
2021/04/09 00:52:00;;;;;;;5.57;2.60;;;18.80;31.80;;;;;;5074451;28;20480;-65
2021/04/09 00:54:26;;;;;;;4.57;2.30;;;18.80;31.70;;;;;;5075408;28;20068;-65
2021/04/09 00:56:52;;;;;;;5.28;2.17;;;18.80;31.70;;;;;;5075283;28;20028;-65
2021/04/09 00:59:18;;;;;;;5.22;2.22;;;18.80;31.80;;;;;;5074324;28;20064;-65
2021/04/09 01:01:44;;;;;;;5.60;2.50;;;18.80;31.70;;;;;;5075355;28;20055;-65
2021/04/09 01:04:09;;;;;;;5.55;2.70;;;18.80;31.70;;;;;;5075218;28;20029;-65
2021/04/09 01:06:36;;;;;;;5.60;2.25;;;18.80;31.70;;;;;;5073460;28;20035;-66
2021/04/09 01:09:02;;;;;;;7.60;2.30;;;18.80;31.70;;;;;;5074911;28;20028;-66
2021/04/09 01:11:28;;;;;;;6.93;2.55;;;18.80;31.70;;;;;;5074735;28;20295;-66
2021/04/09 01:13:53;;;;;;;5.03;2.20;;;18.80;31.70;;;;;;5074859;28;20068;-66
2021/04/09 01:16:48;;;;;;;5.43;2.33;;;18.80;31.70;;;;;;5074914;28;20034;-66
2021/04/09 01:19:46;;;;;;;5.15;2.30;;;18.80;31.70;;;;;;5074836;28;20506;-66
2021/04/09 01:22:12;;;;;;;4.72;2.08;;;18.80;31.70;;;;;;5075535;28;20080;-65
2021/04/09 01:24:46;;;;;;;6.20;2.67;;;18.80;31.70;;;;;;5079837;28;20472;-66
2021/04/09 01:27:28;;;;;;;;;;;18.80;31.70;;;;;;5075663;28;20025;-66
2021/04/09 01:30:26;;;;;;;6.05;2.42;;;18.80;31.70;;;;;;5074305;28;19936;-66
2021/04/09 01:32:54;;;;;;;5.97;2.88;;;18.80;31.80;;;;;;5074336;28;20075;-65
2021/04/09 01:35:23;;;;;;;5.90;2.55;;;18.80;31.80;;;;;;5074138;28;20025;-66
2021/04/09 01:38:01;;;;;;;5.53;2.35;;;18.70;31.70;;;;;;5080263;28;20092;-66
2021/04/09 01:40:32;;;;;;;5.95;2.50;;;18.70;31.70;;;;;;5083099;28;20095;-66
2021/04/09 01:43:01;;;;;;;5.65;2.72;;;18.70;31.80;;;;;;5074973;28;20112;-66
2021/04/09 01:45:29;;;;;;;5.45;2.50;;;18.70;31.70;;;;;;5074383;28;20507;-65
2021/04/09 01:47:56;;;;;;;6.32;2.80;;;18.80;31.70;;;;;;5074721;28;20415;-65
2021/04/09 01:50:24;;;;;;;7.85;2.92;;;18.80;31.70;;;;;;5074152;28;20064;-65
2021/04/09 01:52:51;;;;;;;6.47;2.90;;;18.80;31.70;;;;;;5074270;28;20424;-66
2021/04/09 01:55:18;;;;;;;5.90;2.55;;;18.80;31.70;;;;;;5074031;28;20070;-65
2021/04/09 01:57:44;;;;;;;6.82;2.85;;;18.70;31.70;;;;;;5074316;28;20032;-66
2021/04/09 02:00:23;;;;;;;6.07;2.60;;;18.70;31.80;;;;;;5074345;28;20040;-66
2021/04/09 02:02:51;;;;;;;5.35;2.47;;;18.70;31.70;;;;;;5073217;28;20491;-65
2021/04/09 02:05:20;;;;;;;6.10;2.75;;;18.70;31.70;;;;;;5073821;28;20058;-65
2021/04/09 02:07:47;;;;;;;7.03;3.15;;;18.70;31.70;;;;;;5074268;28;20024;-65
2021/04/09 02:10:14;;;;;;;7.78;3.63;;;18.70;31.70;;;;;;5073691;28;20052;-66
2021/04/09 02:12:42;;;;;;;8.15;3.67;;;18.70;31.70;;;;;;5073749;28;20074;-65
2021/04/09 02:15:15;;;;;;;5.28;2.80;;;18.70;31.70;;;;;;5073752;28;20035;-66
2021/04/09 02:17:42;;;;;;;5.35;2.95;;;18.70;31.70;;;;;;5073840;28;20413;-65
2021/04/09 02:20:12;;;;;;;6.53;2.95;;;18.70;31.70;;;;;;5073670;28;20434;-66
2021/04/09 02:22:45;;;;;;;7.43;2.95;;;18.70;31.70;;;;;;5073893;28;20033;-66
2021/04/09 02:25:14;;;;;;;8.50;3.03;;;18.70;31.70;;;;;;5073689;28;20120;-66
2021/04/09 02:27:42;;;;;;;5.85;2.95;;;18.70;31.70;;;;;;5073794;28;20036;-65
2021/04/09 02:30:09;;;;;;;8.10;4.05;;;18.70;31.70;;;;;;5073456;28;20020;-66
2021/04/09 02:32:35;;;;;;;7.10;3.35;;;18.70;31.80;;;;;;5073279;28;20382;-65
2021/04/09 02:35:01;;;;;;;7.65;3.17;;;18.70;31.70;;;;;;5073332;28;20107;-65
2021/04/09 02:37:28;;;;;;;7.88;3.40;;;18.70;31.70;;;;;;5073542;28;20070;-65
2021/04/09 02:39:56;;;;;;;6.68;3.22;;;18.70;31.70;;;;;;5073973;28;20024;-66
2021/04/09 02:42:22;;;;;;;7.82;3.58;;;18.70;31.70;;;;;;5073708;28;20029;-65
2021/04/09 02:44:48;;;;;;;6.43;3.08;;;18.70;31.70;;;;;;5073545;28;20480;-66
2021/04/09 02:47:21;;;;;;;8.32;3.60;;;18.70;31.70;;;;;;5073545;28;20025;-65
2021/04/09 02:50:11;;;;;;;7.20;3.10;;;18.70;31.70;;;;;;5073927;28;20428;-66
2021/04/09 02:52:46;;;;;;;8.07;3.47;;;18.70;31.70;;;;;;5054535;28;20086;-66
2021/04/09 02:55:15;;;;;;;7.70;3.50;;;18.70;31.70;;;;;;5074194;28;20107;-65
2021/04/09 02:57:43;;;;;;;7.35;3.40;;;18.70;31.70;;;;;;5073523;28;20021;-65
2021/04/09 03:00:10;;;;;;;7.00;3.53;;;18.70;31.70;;;;;;5073536;28;20480;-66
2021/04/09 03:02:38;;;;;;;6.75;3.40;;;18.70;31.70;;;;;;5073390;28;20103;-66
2021/04/09 03:05:09;;;;;;;7.13;3.40;;;18.60;31.70;;;;;;5073565;28;20032;-66
2021/04/09 03:07:37;;;;;;;8.07;3.67;;;18.70;31.70;;;;;;5073268;28;20384;-65
2021/04/09 03:10:08;;;;;;;8.25;3.33;;;18.70;31.70;;;;;;5072825;28;20021;-65
2021/04/09 03:12:34;;;;;;;7.82;3.97;;;18.60;31.70;;;;;;5073093;28;20032;-65
2021/04/09 03:15:02;;;;;;;7.80;3.45;;;18.60;31.70;;;;;;5075614;28;20159;-66
2021/04/09 03:17:41;;;;;;;7.35;3.42;;;18.60;31.70;;;;;;5077126;28;20157;-64
2021/04/09 03:20:08;;;;;;;6.47;3.25;;;18.60;31.70;;;;;;5077074;28;20371;-64
2021/04/09 03:22:33;;;;;;;7.65;3.53;;;18.70;31.70;;;;;;5076893;28;20400;-64
2021/04/09 03:24:59;;;;;;;7.63;3.55;;;18.60;31.70;;;;;;5076975;28;20028;-64
2021/04/09 03:27:24;;;;;;;6.32;3.08;;;18.70;31.70;;;;;;5077097;28;20021;-64
2021/04/09 03:29:50;;;;;;;8.02;3.05;;;18.60;31.80;;;;;;5077581;28;20380;-64
2021/04/09 03:32:17;;;;;;;7.43;3.28;;;18.60;31.70;;;;;;5077695;28;20024;-65
2021/04/09 03:34:43;;;;;;;6.20;3.35;;;18.60;31.70;;;;;;5082954;28;20430;-65
2021/04/09 03:37:08;;;;;;;7.10;3.50;;;18.60;31.70;;;;;;5076694;28;20027;-65
2021/04/09 03:39:35;;;;;;;8.27;3.33;;;18.60;31.70;;;;;;5076913;28;20103;-65
2021/04/09 03:42:02;;;;;;;7.53;3.30;;;18.60;31.70;;;;;;5076279;28;20036;-65
2021/04/09 03:44:27;;;;;;;6.82;2.80;;;18.60;31.70;;;;;;5076414;28;20093;-65
2021/04/09 03:46:53;;;;;;;8.75;3.28;;;18.60;31.70;;;;;;5076639;28;20464;-65
2021/04/09 03:49:18;;;;;;;6.80;3.08;;;18.60;31.80;;;;;;5076329;28;20380;-65
2021/04/09 03:51:44;;;;;;;7.00;3.90;;;18.60;31.70;;;;;;5076381;28;20052;-65
2021/04/09 03:54:10;;;;;;;6.68;2.95;;;18.60;31.70;;;;;;5076058;28;20048;-65
2021/04/09 03:56:35;;;;;;;6.53;3.33;;;18.60;31.70;;;;;;5079363;28;20025;-65
2021/04/09 03:59:01;;;;;;;6.78;3.00;;;18.60;31.70;;;;;;5076801;28;20115;-65
2021/04/09 04:01:29;;;;;;;6.95;3.78;;;18.60;31.80;;;;;;5076059;28;20086;-64
2021/04/09 04:03:55;;;;;;;6.40;3.20;;;18.60;31.70;;;;;;5076218;28;20082;-65
2021/04/09 04:06:21;;;;;;;6.78;3.22;;;18.60;31.70;;;;;;5076553;28;20029;-64
2021/04/09 04:08:46;;;;;;;6.25;3.45;;;18.60;31.70;;;;;;5076083;28;20059;-65
2021/04/09 04:11:13;;;;;;;6.90;3.15;;;18.60;31.70;;;;;;5076138;28;20029;-65
2021/04/09 04:13:39;;;;;;;6.55;3.58;;;18.60;31.70;;;;;;5076032;28;20040;-65
2021/04/09 04:16:05;;;;;;;7.32;3.42;;;18.70;31.70;;;;;;5075925;28;20025;-65
2021/04/09 04:18:30;;;;;;;7.07;3.35;;;18.70;31.70;;;;;;5075923;28;20028;-65
2021/04/09 04:20:56;;;;;;;7.28;3.17;;;18.70;31.60;;;;;;5075504;28;20053;-65
2021/04/09 04:23:22;;;;;;;6.47;3.17;;;18.70;31.60;;;;;;5075415;28;20492;-65
2021/04/09 04:25:47;;;;;;;6.05;2.83;;;18.70;31.60;;;;;;5074708;28;20085;-65
2021/04/09 04:28:13;;;;;;;8.20;3.38;;;18.80;31.60;;;;;;5075712;28;20029;-65
2021/04/09 04:30:39;;;;;;;6.40;3.35;;;18.80;31.60;;;;;;5075427;28;20039;-65
2021/04/09 04:33:05;;;;;;;7.57;3.22;;;18.80;31.60;;;;;;5075656;28;20107;-65
2021/04/09 04:35:30;;;;;;;4.97;2.75;;;18.90;31.50;;;;;;5075631;28;20459;-65
2021/04/09 04:37:58;;;;;;;5.53;2.92;;;18.90;31.60;;;;;;5075374;28;20038;-65
2021/04/09 04:40:24;;;;;;;6.88;3.28;;;18.90;31.60;;;;;;5075362;28;20365;-65
2021/04/09 04:42:50;;;;;;;6.72;2.75;;;18.90;31.50;;;;;;5075562;28;20028;-65
2021/04/09 04:45:17;;;;;;;6.22;3.15;;;18.90;31.50;;;;;;5075307;28;20115;-65
2021/04/09 04:47:43;;;;;;;5.45;2.63;;;18.90;31.50;;;;;;5075292;28;20028;-65
2021/04/09 04:50:09;;;;;;;6.40;3.15;;;19.00;31.50;;;;;;5075113;28;20036;-65
2021/04/09 04:52:34;;;;;;;6.28;2.88;;;19.00;31.50;;;;;;5075075;28;20040;-65
2021/04/09 04:55:00;;;;;;;6.18;2.97;;;19.00;31.50;;;;;;5075350;28;20111;-65
2021/04/09 04:57:25;;;;;;;5.88;2.60;;;19.00;31.50;;;;;;5075324;28;20048;-65
2021/04/09 04:59:51;;;;;;;5.53;2.75;;;19.00;31.50;;;;;;5075464;28;20029;-65
2021/04/09 05:02:16;;;;;;;5.88;2.70;;;19.00;31.50;;;;;;5075204;28;20025;-65
2021/04/09 05:04:42;;;;;;;6.65;2.97;;;19.00;31.50;;;;;;5075010;28;20040;-65
2021/04/09 05:07:07;;;;;;;6.30;3.00;;;19.00;31.50;;;;;;5075176;28;20028;-65
2021/04/09 05:09:33;;;;;;;6.13;2.90;;;19.10;31.40;;;;;;5074844;28;20028;-65
2021/04/09 05:11:58;;;;;;;5.75;2.45;;;19.10;31.50;;;;;;5074925;28;20379;-65
2021/04/09 05:14:24;;;;;;;7.05;3.20;;;19.10;31.40;;;;;;5074984;28;20032;-65
2021/04/09 05:16:49;;;;;;;5.45;2.63;;;19.10;31.40;;;;;;5074735;28;20028;-65
2021/04/09 05:19:15;;;;;;;6.18;2.63;;;19.10;31.50;;;;;;5074895;28;20029;-66
2021/04/09 05:21:41;;;;;;;5.60;2.72;;;19.10;31.40;;;;;;5074690;28;20561;-65
2021/04/09 05:24:06;;;;;;;6.40;2.47;;;19.10;31.50;;;;;;5074565;28;20032;-65
2021/04/09 05:26:32;;;;;;;8.15;2.65;;;19.20;31.40;;;;;;5074359;28;20082;-66
2021/04/09 05:28:57;;;;;;;5.70;2.28;;;19.20;31.40;;;;;;5074389;28;20492;-64
2021/04/09 05:31:23;;;;;;;6.20;2.17;;;19.20;31.40;;;;;;5075149;28;20465;-66
2021/04/09 05:33:48;;;;;;;4.97;2.38;;;19.20;31.40;;;;;;5073373;28;20373;-65
2021/04/09 05:36:14;;;;;;;5.65;2.40;;;19.20;31.40;;;;;;5072960;28;20600;-65
2021/04/09 05:38:39;;;;;;;5.57;2.40;;;19.20;31.40;;;;;;5073938;28;20033;-65
2021/04/09 05:41:05;;;;;;;6.45;2.60;;;19.30;31.40;;;;;;5074517;28;20025;-65
2021/04/09 05:43:31;;;;;;;5.35;2.45;;;19.30;31.40;;;;;;5074268;28;20036;-64
2021/04/09 05:45:56;;;;;;;6.00;2.80;;;19.30;31.40;;;;;;5073892;28;20032;-65
2021/04/09 05:48:22;;;;;;;6.40;2.50;;;19.30;31.40;;;;;;5074104;28;20032;-65
2021/04/09 05:50:47;;;;;;;6.15;2.60;;;19.30;31.40;;;;;;5074395;28;20428;-65
2021/04/09 05:53:14;;;;;;;4.97;2.30;;;19.30;31.40;;;;;;5073907;28;20059;-65
2021/04/09 05:55:40;;;;;;;5.55;2.53;;;19.30;31.40;;;;;;5074251;28;20029;-65
2021/04/09 05:58:05;;;;;;;6.13;2.80;;;19.30;31.40;;;;;;5074139;28;20427;-65
2021/04/09 06:00:31;;;;;;;5.35;2.42;;;19.30;31.40;;;;;;5074166;28;20039;-65
2021/04/09 06:02:56;;;;;;;4.85;2.58;;;19.30;31.40;;;;;;5073768;28;20380;-66
2021/04/09 06:05:22;;;;;;;6.43;2.60;;;19.30;31.40;;;;;;5073861;28;20074;-65
2021/04/09 06:07:48;;;;;;;3.78;1.98;;;19.30;31.40;;;;;;5072794;28;20040;-65
2021/04/09 06:10:14;;;;;;;5.00;2.22;;;19.40;31.40;;;;;;5073955;28;20099;-65
2021/04/09 06:12:41;;;;;;;5.10;2.13;;;19.40;31.40;;;;;;5073789;28;20060;-64
2021/04/09 06:15:09;;;;;;;7.20;2.40;;;19.40;31.40;;;;;;5073943;28;20032;-65
2021/04/09 06:17:34;;;;;;;6.28;3.03;;;19.40;31.30;;;;;;5073648;28;20036;-65
2021/04/09 06:20:00;;;;;;;4.95;2.42;;;19.40;31.40;;;;;;5073537;28;20540;-65
2021/04/09 06:22:26;;;;;;;5.63;2.80;;;19.40;31.40;;;;;;5073295;28;20072;-65
2021/04/09 06:24:51;;;;;;;6.07;2.40;;;19.40;31.40;;;;;;5073452;28;20125;-65
2021/04/09 06:27:17;;;;;;;5.25;2.42;;;19.50;31.40;;;;;;5073686;28;20154;-65
2021/04/09 06:29:42;;;;;;;4.25;1.92;;;19.40;31.40;;;;;;5073529;28;20153;-65
2021/04/09 06:32:08;;;;;;;4.45;2.20;;;19.40;31.30;;;;;;5073549;28;20035;-65
2021/04/09 06:34:34;;;;;;;6.00;2.40;;;19.50;31.30;;;;;;5073447;28;20094;-65
2021/04/09 06:36:59;;;;;;;6.22;2.65;;;19.50;31.40;;;;;;5073227;28;20028;-65
2021/04/09 06:39:25;;;;;;;4.38;2.05;;;19.50;31.40;;;;;;5073599;28;20029;-65
2021/04/09 06:41:50;;;;;;;4.32;2.22;;;19.50;31.30;;;;;;5072915;28;20055;-65
2021/04/09 06:44:17;;;;;;;5.03;2.17;;;19.50;31.30;;;;;;5073346;28;20020;-65
2021/04/09 06:46:43;;;;;;;4.55;2.10;;;19.50;31.30;;;;;;5073173;28;20047;-65
2021/04/09 06:49:09;;;;;;;4.68;2.15;;;19.50;31.30;;;;;;5071465;28;20497;-65
2021/04/09 06:51:35;;;;;;;4.38;2.13;;;19.50;31.30;;;;;;5073321;28;20029;-65
2021/04/09 06:54:01;;;;;;;5.85;2.78;;;19.50;31.30;;;;;;5073020;28;20032;-66
2021/04/09 06:56:29;;;;;;;5.45;2.35;;;19.50;31.30;;;;;;5073112;28;20028;-65
2021/04/09 06:58:56;;;;;;;4.72;2.20;;;19.50;31.30;;;;;;5073066;28;20057;-65
2021/04/09 07:01:24;;;;;;;5.97;2.20;;;19.50;31.30;;;;;;5074347;28;20372;-65
2021/04/09 07:03:54;;;;;;;5.38;2.20;;;19.50;31.30;;;;;;5073233;28;20473;-65
2021/04/09 07:06:19;;;;;;;6.10;2.58;;;19.60;31.30;;;;;;5071464;28;20380;-65
2021/04/09 07:08:45;;;;;;;6.80;2.40;;;19.50;31.30;;;;;;5073545;28;20025;-65
2021/04/09 07:11:10;;;;;;;7.30;2.50;;;19.60;31.30;;;;;;5072842;28;20020;-65
2021/04/09 07:13:50;;;;;;;5.75;2.17;;;19.50;31.20;;;;;;5072840;28;20040;-64
2021/04/09 07:16:16;;;;;;;4.75;1.95;;;19.60;31.30;;;;;;5072769;28;20029;-65
2021/04/09 07:18:58;;;;;;;4.60;2.03;;;19.60;31.20;;;;;;5072723;28;20043;-64
2021/04/09 07:21:26;;;;;;;5.00;2.38;;;19.60;31.30;;;;;;5072849;28;20052;-64
2021/04/09 07:24:14;;;;;;;4.93;2.15;;;19.60;31.30;;;;;;5073062;28;20025;-65
2021/04/09 07:26:42;;;;;;;3.90;1.90;;;19.60;31.20;;;;;;5072778;28;20021;-65
2021/04/09 07:29:31;;;;;;;5.00;1.90;;;19.60;31.30;;;;;;5072715;28;20033;-65
2021/04/09 07:32:09;;;;;;;3.67;1.90;;;19.60;31.20;;;;;;5072672;28;20442;-64
2021/04/09 07:35:06;;;;;;;5.85;2.10;;;19.70;31.20;;;;;;5072984;28;20035;-65
2021/04/09 07:37:46;;;;;;;3.67;1.92;;;19.70;31.20;;;;;;5063954;28;20032;-65
2021/04/09 07:40:16;;;;;;;5.18;2.30;;;19.70;31.20;;;;;;5071308;28;20028;-64
2021/04/09 07:42:42;;;;;;;5.07;1.80;;;19.70;31.20;;;;;;5072828;28;20078;-65
2021/04/09 07:45:11;;;;;;;4.97;2.25;;;19.70;31.20;;;;;;5072482;28;20108;-64
2021/04/09 07:47:38;;;;;;;4.75;1.70;;;19.70;31.20;;;;;;5072842;28;20035;-65
2021/04/09 07:50:07;;;;;;;4.72;2.08;;;19.70;31.20;;;;;;5072695;28;20039;-65
2021/04/09 07:52:45;;;;;;;4.43;1.88;;;19.70;31.20;;;;;;5072550;28;20167;-65
2021/04/09 07:55:19;;;;;;;4.95;2.10;;;19.70;31.20;;;;;;5072537;28;20388;-66
2021/04/09 07:57:45;;;;;;;5.95;2.22;;;19.70;31.20;;;;;;5072456;28;20086;-64
2021/04/09 08:00:23;;;;;;;4.78;1.88;;;19.70;31.20;;;;;;5072385;28;20050;-65
2021/04/09 08:02:51;;;;;;;5.78;2.10;;;19.70;31.20;;;;;;5075856;28;20116;-66
2021/04/09 08:05:19;;;;;;;6.25;2.33;;;19.80;31.20;;;;;;5076229;28;20039;-65
2021/04/09 08:07:44;;;;;;;5.07;1.80;;;19.80;31.20;;;;;;5075601;28;20032;-65
2021/04/09 08:10:16;;;;;;;4.20;1.77;;;19.80;31.20;;;;;;5075637;28;20395;-64
2021/04/09 08:12:43;;;;;;;4.75;2.17;;;19.80;31.10;;;;;;5075574;28;20028;-66
2021/04/09 08:15:12;;;;;;;5.93;2.00;;;19.80;31.10;;;;;;5075917;28;20039;-64
2021/04/09 08:17:39;;;;;;;4.43;1.83;;;19.80;31.10;;;;;;5075723;28;20406;-66
2021/04/09 08:20:13;;;;;;;4.53;2.03;;;19.80;31.10;;;;;;5075714;28;20068;-65
2021/04/09 08:22:40;;;;;;;4.20;1.92;;;19.80;31.20;;;;;;5075585;28;20028;-65
2021/04/09 08:25:06;;;;;;;4.60;2.08;;;19.80;31.20;;;;;;5075302;28;20058;-65
2021/04/09 08:27:34;;;;;;;3.90;2.00;;;19.80;31.20;;;;;;5075960;28;20103;-64
2021/04/09 08:30:00;;;;;;;4.55;1.80;;;19.80;31.20;;;;;;5075419;28;20043;-65
2021/04/09 08:32:26;;;;;;;4.38;1.85;;;19.80;31.20;;;;;;5073676;28;20384;-64
2021/04/09 08:34:53;;;;;;;5.35;2.10;;;19.80;31.20;;;;;;5075253;28;20080;-65
2021/04/09 08:37:20;;;;;;;4.15;1.77;;;19.80;31.20;;;;;;5075467;28;20020;-64
2021/04/09 08:39:46;;;;;;;4.65;1.77;;;19.80;31.20;;;;;;5075681;28;20111;-65
2021/04/09 08:42:14;;;;;;;5.55;1.98;;;19.80;31.20;;;;;;5075585;28;20048;-65
2021/04/09 08:44:40;;;;;;;5.82;1.90;;;19.80;31.20;;;;;;5075342;28;20507;-66
2021/04/09 08:47:07;;;;;;;3.85;1.70;;;19.80;31.20;;;;;;5075254;28;20024;-65
2021/04/09 08:49:32;;;;;;;4.72;2.13;;;19.80;31.20;;;;;;5075220;28;20147;-66
2021/04/09 08:52:01;;;;;;;4.15;1.92;;;19.90;31.20;;;;;;5075070;28;20052;-67
2021/04/09 08:54:30;;;;;;;4.35;1.73;;;19.90;31.20;;;;;;5074835;28;20040;-66
2021/04/09 08:56:58;;;;;;;5.22;2.08;;;19.80;31.20;;;;;;5074893;28;20048;-66
2021/04/09 08:59:50;;;;;;;5.10;1.85;;;19.80;31.20;;;;;;5075058;28;20032;-66
2021/04/09 09:02:22;;;;;;;4.43;1.65;;;19.90;31.20;;;;;;5069713;28;20037;-65
2021/04/09 09:05:06;;;;;;;4.90;1.95;;;19.90;31.20;;;;;;5074860;28;20035;-66
2021/04/09 09:07:43;;;;;;;3.47;1.57;;;19.90;31.20;;;;;;5074785;28;20077;-67
2021/04/09 09:10:27;;;;;;;3.72;1.80;;;19.90;31.20;;;;;;5074794;28;20308;-64
2021/04/09 09:13:05;;;;;;;3.50;1.85;;;19.90;31.20;;;;;;5074220;28;20100;-67
2021/04/09 09:15:46;;;;;;;3.80;1.70;;;19.90;31.20;;;;;;5074780;28;20040;-66
2021/04/09 09:18:27;;;;;;;4.10;1.98;;;19.90;31.20;;;;;;5074596;28;20380;-65
2021/04/09 09:21:05;;;;;;;4.45;2.00;;;19.90;31.30;;;;;;5074420;28;20440;-65
2021/04/09 09:24:01;;;;;;;6.38;1.70;;;19.90;31.20;;;;;;5074534;28;20037;-66
2021/04/09 09:26:36;;;;;;;5.45;1.88;;;19.90;31.20;;;;;;5065644;28;20086;-66
2021/04/09 09:29:24;;;;;;;4.38;1.70;;;20.00;31.20;;;;;;5074281;28;20480;-66
2021/04/09 09:31:52;;;;;;;4.57;2.08;;;19.90;31.20;;;;;;5074412;28;20039;-66
2021/04/09 09:34:21;;;;;;;3.70;1.83;;;19.90;31.20;;;;;;5074347;28;20032;-65
2021/04/09 09:37:24;;;;;;;3.40;1.58;;;19.90;31.20;;;;;;5074122;28;20024;-65
2021/04/09 09:39:53;;;;;;;4.43;1.90;;;19.90;31.20;;;;;;5066061;28;20512;-66
2021/04/09 09:42:21;;;;;;;5.35;2.03;;;19.90;31.20;;;;;;5074006;28;20021;-66
2021/04/09 09:44:55;;;;;;;5.55;1.60;;;19.90;31.30;;;;;;5074051;28;20013;-66
2021/04/09 09:47:26;;;;;;;3.95;1.60;;;20.00;31.20;;;;;;5073985;28;20020;-64
2021/04/09 09:50:08;;;;;;;3.67;1.90;;;19.90;31.20;;;;;;5074178;28;20025;-66
2021/04/09 09:52:44;;;;;;;4.03;1.70;;;20.00;31.20;;;;;;5073870;28;20035;-66
2021/04/09 09:55:14;;;;;;;4.47;1.77;;;20.00;31.20;;;;;;5073661;28;20024;-65
2021/04/09 09:57:49;;;;;;;4.10;2.00;;;20.00;31.20;;;;;;5073686;28;20024;-64
2021/04/09 10:00:25;;;;;;;3.95;1.60;;;20.00;31.20;;;;;;5073290;28;20035;-65
2021/04/09 10:02:50;;;;;;;3.35;1.50;;;20.00;31.20;;;;;;5073731;28;20037;-66
2021/04/09 10:05:17;;;;;;;2.75;1.33;;;20.00;31.20;;;;;;5074090;28;20033;-66
2021/04/09 10:07:44;;;;;;;5.85;1.60;;;20.00;31.20;;;;;;5074349;28;20106;-66
2021/04/09 10:10:10;;;;;;;4.32;1.67;;;20.00;31.20;;;;;;5074342;28;20109;-65
2021/04/09 10:12:36;;;;;;;3.80;1.60;;;20.00;31.20;;;;;;5074029;28;20021;-65
2021/04/09 10:15:01;;;;;;;5.40;1.88;;;20.00;31.30;;;;;;5072585;28;20025;-65
2021/04/09 10:17:27;;;;;;;3.53;1.60;;;20.00;31.20;;;;;;5074190;28;20368;-66
2021/04/09 10:20:04;;;;;;;3.38;1.40;;;20.00;31.20;;;;;;5076746;28;20053;-66
2021/04/09 10:22:30;;;;;;;4.35;1.58;;;20.00;31.20;;;;;;5075724;28;20044;-66
2021/04/09 10:24:56;;;;;;;3.88;1.85;;;20.00;31.20;;;;;;5075553;28;20024;-66
2021/04/09 10:27:22;;;;;;;3.05;1.30;;;20.00;31.20;;;;;;5075135;28;20487;-66
2021/04/09 10:29:48;;;;;;;5.05;1.70;;;20.00;31.20;;;;;;5074328;28;20406;-66
2021/04/09 10:32:17;;;;;;;3.25;1.40;;;20.00;31.20;;;;;;5076318;28;20088;-65
2021/04/09 10:34:46;;;;;;;4.10;1.67;;;20.00;31.20;;;;;;5080675;28;20063;-65
2021/04/09 10:37:25;;;;;;;4.15;1.70;;;20.00;31.20;;;;;;5074437;28;20058;-65
2021/04/09 10:39:51;;;;;;;3.92;1.63;;;20.00;31.20;;;;;;5073521;28;20097;-65
2021/04/09 10:42:17;;;;;;;3.50;1.30;;;20.00;31.20;;;;;;5073362;28;20029;-65
2021/04/09 10:44:43;;;;;;;4.03;1.60;;;20.10;31.10;;;;;;5073355;28;20488;-65
2021/04/09 10:47:09;;;;;;;3.58;1.67;;;20.10;31.20;;;;;;5073545;28;20021;-65
2021/04/09 10:49:40;;;;;;;4.07;1.73;;;20.10;31.10;;;;;;5073073;28;20028;-65
2021/04/09 10:52:12;;;;;;;4.20;1.67;;;20.10;31.10;;;;;;5073077;28;20561;-65
2021/04/09 10:54:40;;;;;;;4.50;1.88;;;20.20;31.00;;;;;;5073112;28;20029;-65
2021/04/09 10:57:11;;;;;;;3.15;1.30;;;20.20;31.10;;;;;;5072965;28;20107;-65
2021/04/09 10:59:40;;;;;;;4.05;1.63;;;20.20;31.00;;;;;;5073073;28;20025;-66
2021/04/09 11:02:09;;;;;;;3.85;1.60;;;20.20;31.10;;;;;;5073447;28;20021;-66
2021/04/09 11:04:36;;;;;;;5.05;1.48;;;20.20;31.10;;;;;;5073176;28;20095;-65
2021/04/09 11:07:05;;;;;;;4.22;1.80;;;20.20;31.10;;;;;;5072774;28;20032;-65
2021/04/09 11:09:47;;;;;;;6.07;2.17;;;20.20;31.20;;;;;;5073104;28;20016;-65
2021/04/09 11:12:16;;;;;;;3.67;1.52;;;20.10;31.20;;;;;;5072643;28;20349;-65
2021/04/09 11:14:42;;;;;;;3.17;1.35;;;20.10;31.20;;;;;;5073108;28;20047;-65
2021/04/09 11:17:07;;;;;;;3.08;1.48;;;20.20;31.10;;;;;;5072873;28;20017;-65
2021/04/09 11:19:37;;;;;;;2.88;1.30;;;20.20;31.10;;;;;;5073023;28;20429;-65
2021/04/09 11:22:05;;;;;;;3.20;1.42;;;20.10;31.20;;;;;;5072669;28;20102;-65
2021/04/09 11:24:35;;;;;;;3.13;1.38;;;20.10;31.20;;;;;;5072800;28;20037;-65
2021/04/09 11:27:17;;;;;;;3.42;1.27;;;20.20;31.20;;;;;;5072830;28;20534;-66
2021/04/09 11:29:44;;;;;;;3.90;1.50;;;20.20;31.10;;;;;;5072986;28;20026;-66
2021/04/09 11:32:18;;;;;;;4.00;1.45;;;20.20;31.20;;;;;;5072719;28;20031;-66
2021/04/09 11:34:51;;;;;;;4.28;1.50;;;20.10;31.20;;;;;;5072845;28;20068;-65
2021/04/09 11:37:20;;;;;;;4.38;1.88;;;20.10;31.30;;;;;;5077013;28;20021;-65
2021/04/09 11:39:56;;;;;;;3.40;1.60;;;20.10;31.30;;;;;;5076540;28;20032;-64
2021/04/09 11:42:32;;;;;;;3.13;1.40;;;20.10;31.30;;;;;;5076358;28;20060;-66
2021/04/09 11:45:12;;;;;;;2.63;1.25;;;20.10;31.40;;;;;;5076511;28;20028;-65
2021/04/09 11:47:43;;;;;;;3.58;1.35;;;20.10;31.40;;;;;;5076331;28;20085;-65
2021/04/09 11:50:24;;;;;;;4.05;1.60;;;20.00;31.40;;;;;;5076223;28;20384;-65
2021/04/09 11:52:50;;;;;;;3.85;1.40;;;20.10;31.40;;;;;;5076110;28;20485;-66
2021/04/09 11:55:17;;;;;;;2.75;1.35;;;20.00;31.40;;;;;;5076331;28;20388;-65
2021/04/09 11:57:43;;;;;;;3.78;1.77;;;20.00;31.40;;;;;;5075982;28;20021;-64
2021/04/09 12:00:28;;;;;;;4.13;1.50;;;20.00;31.50;;;;;;5076372;28;20035;-64
2021/04/09 12:03:01;;;;;;;3.67;1.20;;;20.00;31.40;;;;;;5075929;28;20070;-64
2021/04/09 12:05:28;;;;;;;3.78;1.40;;;20.00;31.50;;;;;;5075914;28;20357;-64
2021/04/09 12:07:55;;;;;;;3.33;1.60;;;20.00;31.50;;;;;;5075933;28;20031;-65
2021/04/09 12:10:22;;;;;;;3.35;1.33;;;20.00;31.50;;;;;;5076241;28;20476;-65
2021/04/09 12:12:48;;;;;;;2.83;1.30;;;20.00;31.50;;;;;;5075802;28;20063;-65
2021/04/09 12:15:14;;;;;;;3.55;1.40;;;20.00;31.50;;;;;;5077039;28;20060;-65
2021/04/09 12:17:41;;;;;;;3.45;1.30;;;20.00;31.50;;;;;;5080688;28;20025;-66
2021/04/09 12:20:13;;;;;;;4.72;1.42;;;20.00;31.40;;;;;;5076595;28;20111;-65
2021/04/09 12:22:39;;;;;;;4.40;1.88;;;20.00;31.50;;;;;;5075835;28;20499;-66
2021/04/09 12:25:06;;;;;;;2.63;1.27;;;20.00;31.50;;;;;;5075515;28;20024;-66
2021/04/09 12:27:32;;;;;;;3.60;1.30;;;20.10;31.40;;;;;;5075403;28;20111;-66
2021/04/09 12:29:58;;;;;;;3.47;1.10;;;20.10;31.40;;;;;;5074352;28;20479;-65
2021/04/09 12:32:24;;;;;;;2.88;1.30;;;20.10;31.50;;;;;;5075419;28;20514;-65
2021/04/09 12:34:50;;;;;;;3.67;1.40;;;20.00;31.50;;;;;;5075430;28;20079;-64
2021/04/09 12:37:15;;;;;;;2.13;1.08;;;20.10;31.50;;;;;;5075810;28;20047;-66
2021/04/09 12:39:41;;;;;;;4.82;1.67;;;20.00;31.50;;;;;;5075430;28;20024;-66
2021/04/09 12:42:08;;;;;;;3.35;1.35;;;20.00;31.50;;;;;;5075129;28;20021;-66
2021/04/09 12:44:35;;;;;;;2.13;1.08;;;20.10;31.50;;;;;;5074870;28;20380;-65
2021/04/09 12:47:00;;;;;;;4.25;1.33;;;20.00;31.50;;;;;;5074162;28;20028;-64
2021/04/09 12:49:26;;;;;;;2.53;1.10;;;20.00;31.50;;;;;;5075322;28;20422;-64
2021/04/09 12:51:52;;;;;;;3.15;1.10;;;20.10;31.60;;;;;;5073764;28;20086;-65
2021/04/09 12:54:18;;;;;;;3.33;1.27;;;20.10;31.50;;;;;;5075034;28;20090;-65
2021/04/09 12:56:43;;;;;;;2.55;1.40;;;20.10;31.50;;;;;;5075210;28;20070;-66